Time;durP1;ratioP1;P1;durP2;ratioP2;P2;SDS_P1;SDS_P2;PMS_P1;PMS_P2;Temp;Humidity;BMP_temperature;BMP_pressure;BME280_temperature;BME280_humidity;BME280_pressure;Samples;Min_cycle;Max_cycle;Signal;HPM_P1;HPM_P2
2023/10/10 00:05:12;;;;;;;44.50;24.90;;;;;;;5.12;100.00;100942.89;223991;1263;223380;-87
2023/10/10 00:11:08;;;;;;;;;;;;;;;;;;;;;
2023/10/10 00:23:15;;;;;;;33.80;19.90;;;;;;;5.02;100.00;100943.23;223735;1263;140293;-87
2023/10/10 00:29:34;;;;;;;38.20;22.80;;;;;;;4.97;100.00;100937.82;224305;1263;138810;-87
2023/10/10 00:35:17;;;;;;;39.10;22.20;;;;;;;4.95;100.00;100935.45;224081;1263;140520;-86
2023/10/10 00:41:22;;;;;;;38.80;22.80;;;;;;;4.93;100.00;100935.79;223955;1263;140652;-87
2023/10/10 00:47:25;;;;;;;42.30;23.40;;;;;;;4.90;100.00;100931.77;224407;1263;138532;-87
2023/10/10 00:53:23;;;;;;;41.90;23.40;;;;;;;4.89;100.00;100925.47;223879;1263;139897;-86
2023/10/10 00:59:54;;;;;;;42.10;23.60;;;;;;;4.86;100.00;100919.80;224305;1263;139235;-87
2023/10/10 01:05:23;;;;;;;;;;;;;;;;;;;;;
2023/10/10 01:11:26;;;;;;;43.90;23.30;;;;;;;4.76;100.00;100918.23;223706;1264;140117;-86
2023/10/10 01:23:28;;;;;;;42.60;24.30;;;;;;;4.70;100.00;100911.14;223778;1263;140403;-86
2023/10/10 01:35:46;;;;;;;38.80;23.00;;;;;;;4.66;100.00;100900.70;223561;1263;363955;-86
2023/10/10 01:41:59;;;;;;;35.10;20.10;;;;;;;4.63;100.00;100907.55;223981;1263;140000;-87
2023/10/10 01:48:23;;;;;;;37.60;22.70;;;;;;;4.60;100.00;100914.61;224502;1263;95979;-87
2023/10/10 01:54:20;;;;;;;38.60;22.70;;;;;;;4.56;100.00;100917.04;223833;1263;140008;-87
2023/10/10 02:36:09;;;;;;;;;;;;;;;;;;;;;
2023/10/10 02:48:07;;;;;;;38.20;20.50;;;;;;;4.52;100.00;100931.84;224389;1262;124639;-87
2023/10/10 02:53:59;;;;;;;42.70;25.40;;;;;;;4.57;100.00;100937.27;223836;1263;140389;-86
2023/10/10 05:23:58;;;;;;;;;;;;;;;;;;;;;
2023/10/10 05:30:01;;;;;;;40.20;24.50;;;;;;;6.33;100.00;100936.36;224284;1263;139343;-86
2023/10/10 05:36:06;;;;;;;35.20;22.20;;;;;;;6.38;100.00;100936.08;224183;1263;139077;-87
2023/10/10 05:42:04;;;;;;;42.00;24.60;;;;;;;6.41;100.00;100940.31;223785;1263;139969;-87
2023/10/10 05:48:04;;;;;;;40.50;23.10;;;;;;;6.44;100.00;100947.16;224290;1263;139676;-87
2023/10/10 05:54:07;;;;;;;42.30;25.30;;;;;;;6.48;100.00;100950.73;223662;1263;139793;-87
2023/10/10 06:00:36;;;;;;;39.10;24.60;;;;;;;6.57;100.00;100956.62;224300;1263;139353;-87
2023/10/10 06:06:06;;;;;;;43.00;25.80;;;;;;;6.64;100.00;100963.42;224104;1263;139551;-89
2023/10/10 06:12:09;;;;;;;39.00;25.70;;;;;;;6.72;100.00;100966.02;223702;1263;140013;-88
2023/10/10 06:24:22;;;;;;;40.50;26.30;;;;;;;6.91;100.00;100962.88;223610;1263;139962;-93
2023/10/10 06:30:24;;;;;;;41.10;27.10;;;;;;;7.01;100.00;100961.79;223923;1263;139996;-93
2023/10/10 06:42:27;;;;;;;41.60;26.20;;;;;;;7.30;100.00;100958.15;223982;1263;140586;-92
2023/10/10 06:47:54;;;;;;;;;;;;;;;;;;;;;
2023/10/10 06:59:50;;;;;;;39.80;23.50;;;;;;;7.71;100.00;100958.38;224054;1263;138936;-92
2023/10/10 07:05:48;;;;;;;36.30;23.10;;;;;;;7.88;100.00;100964.46;224177;1265;138794;-91
2023/10/10 07:11:49;;;;;;;35.80;21.90;;;;;;;8.05;100.00;100964.19;223696;1263;142136;-91
2023/10/10 07:18:08;;;;;;;37.30;22.30;;;;;;;8.23;100.00;100973.52;224265;1262;138740;-92
2023/10/10 07:30:16;;;;;;;37.50;22.80;;;;;;;8.59;100.00;100967.11;224208;1263;139259;-91
2023/10/10 07:35:53;;;;;;;36.00;20.50;;;;;;;8.77;100.00;100959.98;224197;1263;138784;-89
2023/10/10 07:41:52;;;;;;;29.70;19.80;;;;;;;8.97;100.00;100957.46;223718;1263;139661;-88
2023/10/10 07:54:00;;;;;;;36.50;20.20;;;;;;;9.28;100.00;100957.46;223493;1263;140803;-89
2023/10/10 07:59:40;;;;;;;;;;;;;;;;;;;;;
2023/10/10 08:05:19;;;;;;;32.40;18.40;;;;;;;9.75;100.00;100944.77;224112;1263;367096;-90
2023/10/10 08:11:12;;;;;;;28.90;17.10;;;;;;;9.92;100.00;100951.05;223590;1263;140158;-91
2023/10/10 08:17:51;;;;;;;28.10;17.20;;;;;;;10.12;100.00;100948.59;224272;1263;138672;-89
2023/10/10 08:23:24;;;;;;;24.90;16.40;;;;;;;10.28;100.00;100958.91;223635;1263;140735;-90
2023/10/10 08:29:09;;;;;;;;;;;;;;;;;;;;;
2023/10/10 08:35:04;;;;;;;25.20;16.00;;;;;;;10.66;100.00;100961.02;219695;1263;5380934;-88
2023/10/10 08:40:56;;;;;;;;;;;;;;;;;;;;;
2023/10/10 08:46:52;;;;;;;27.50;15.10;;;;;;;11.02;100.00;100953.11;224248;1262;139119;-90
2023/10/10 08:52:44;;;;;;;;;;;;;;;;;;;;;
2023/10/10 09:04:50;;;;;;;28.00;17.10;;;;;;;11.42;100.00;100957.79;223694;1263;139892;-89
2023/10/10 09:10:53;;;;;;;28.90;17.40;;;;;;;11.68;100.00;100947.51;223706;1265;140477;-91
2023/10/10 09:16:56;;;;;;;30.90;16.10;;;;;;;12.00;99.72;100946.64;224208;1267;139393;-90
2023/10/10 09:22:40;;;;;;;;;;;;;;;;;;;;;
2023/10/10 09:28:40;;;;;;;;;;;;;;;;;;;;;
2023/10/10 09:34:06;;;;;;;28.30;17.30;;;;;;;13.15;96.19;100955.39;223590;1263;140003;-88
2023/10/10 09:40:04;;;;;;;24.70;17.30;;;;;;;13.61;96.83;100951.73;223597;1263;140387;-89
2023/10/10 09:57:39;;;;;;;24.10;17.70;;;;;;;14.61;92.29;100955.84;224254;1267;138885;-89
2023/10/10 10:09:55;;;;;;;28.00;15.80;;;;;;;15.45;87.46;100952.19;224220;1264;139116;-88
2023/10/10 10:16:20;;;;;;;22.70;15.70;;;;;;;15.69;86.47;100940.98;223997;1263;389506;-87
2023/10/10 10:47:09;;;;;;;21.90;14.60;;;;;;;16.39;80.64;100947.14;224031;1264;138922;-88
2023/10/10 10:53:50;;;;;;;22.60;14.00;;;;;;;16.49;81.04;100940.45;223685;1264;140772;-90
2023/10/10 11:05:37;;;;;;;93.80;21.00;;;;;;;16.27;79.30;100943.21;223698;1263;367199;-89
2023/10/10 11:18:07;;;;;;;26.10;15.80;;;;;;;16.25;79.67;100922.98;224030;1268;139213;-89
2023/10/10 11:24:04;;;;;;;27.90;17.30;;;;;;;16.04;79.91;100914.02;223686;1263;140141;-87
2023/10/10 11:30:08;;;;;;;40.60;17.90;;;;;;;16.15;80.37;100914.92;224161;1264;139650;-88
2023/10/10 11:35:46;;;;;;;28.80;16.60;;;;;;;16.24;80.48;100917.50;224157;1264;225980;-87
2023/10/10 11:41:46;;;;;;;33.80;17.00;;;;;;;16.29;80.23;100912.09;223684;1264;140261;-87
2023/10/10 11:48:12;;;;;;;24.70;17.60;;;;;;;16.43;80.44;100906.48;224259;1264;139752;-89
2023/10/10 11:53:55;;;;;;;26.80;19.30;;;;;;;16.44;79.58;100902.92;223666;1266;140418;-86
2023/10/10 11:59:49;;;;;;;30.80;17.90;;;;;;;16.44;79.67;100888.95;224024;1264;139600;-87
2023/10/10 12:11:44;;;;;;;28.00;18.90;;;;;;;16.34;79.51;100896.42;223767;1264;140823;-88
2023/10/10 12:17:45;;;;;;;28.50;20.30;;;;;;;16.17;79.56;100890.87;224128;1266;138975;-88
2023/10/10 12:23:47;;;;;;;27.60;19.80;;;;;;;16.08;79.89;100890.05;223657;1263;140154;-88
2023/10/10 12:29:47;;;;;;;26.80;18.30;;;;;;;15.97;80.83;100883.11;224343;1263;138966;-87
2023/10/10 12:36:09;;;;;;;33.60;20.20;;;;;;;15.92;80.76;100873.91;224164;1263;249823;-88
2023/10/10 12:41:46;;;;;;;29.20;18.80;;;;;;;15.78;81.30;100875.70;223678;1264;140395;-89
2023/10/10 12:47:36;;;;;;;;;;;;;;;;;;;;;
2023/10/10 12:59:32;;;;;;;26.70;18.30;;;;;;;15.45;82.17;100869.28;224432;1264;139289;-88
2023/10/10 13:11:56;;;;;;;31.30;20.00;;;;;;;15.29;83.37;100871.33;223760;1264;140566;-88
2023/10/10 13:23:27;;;;;;;;;;;;;;;;;;;;;
2023/10/10 13:29:15;;;;;;;37.80;22.10;;;;;;;14.97;85.09;100877.29;224322;1264;139028;-88
2023/10/10 13:35:04;;;;;;;;;;;;;;;;;;;;;
2023/10/10 13:41:11;;;;;;;36.70;24.70;;;;;;;14.52;88.73;100871.60;223572;1264;140381;-88
2023/10/10 13:47:13;;;;;;;45.10;27.50;;;;;;;14.41;90.65;100871.98;224232;1264;139116;-88
2023/10/10 13:53:13;;;;;;;34.30;25.30;;;;;;;14.28;91.99;100865.92;223624;1263;140475;-86
2023/10/10 13:59:17;;;;;;;38.50;27.60;;;;;;;14.19;92.81;100871.90;224345;1264;139137;-88
2023/10/10 14:05:19;;;;;;;44.60;29.50;;;;;;;14.06;94.26;100865.75;224023;1263;140129;-90
2023/10/10 14:11:41;;;;;;;46.20;30.80;;;;;;;13.93;96.27;100855.02;223830;1264;141549;-87
2023/10/10 14:17:17;;;;;;;51.60;30.30;;;;;;;13.70;97.42;100860.74;224174;1267;138973;-89
2023/10/10 14:23:14;;;;;;;;;;;;;;;;;;;;;
2023/10/10 14:29:18;;;;;;;43.10;31.90;;;;;;;13.48;98.84;100863.16;224115;1264;139277;-87
2023/10/10 14:35:22;;;;;;;66.60;33.90;;;;;;;13.42;99.48;100859.24;223859;1264;139426;-87
2023/10/10 14:41:22;;;;;;;42.90;30.60;;;;;;;13.41;99.71;100858.45;223693;1264;140463;-86
2023/10/10 14:47:23;;;;;;;44.00;29.80;;;;;;;13.39;99.76;100861.04;224262;1264;139022;-86
2023/10/10 14:53:24;;;;;;;42.00;28.50;;;;;;;13.34;100.00;100860.92;223699;1264;140403;-87
2023/10/10 14:59:17;;;;;;;;;;;;;;;;;;;;;
2023/10/10 15:05:17;;;;;;;46.70;33.20;;;;;;;13.22;100.00;100852.95;224154;1264;139538;-88
2023/10/10 15:11:11;;;;;;;;;;;;;;;;;;;;;
2023/10/10 15:17:09;;;;;;;45.90;29.50;;;;;;;13.13;100.00;100844.83;224241;1264;139170;-87
2023/10/10 15:23:07;;;;;;;48.30;32.70;;;;;;;13.11;100.00;100841.73;223711;1264;140891;-88
2023/10/10 15:29:32;;;;;;;45.70;30.90;;;;;;;13.07;100.00;100843.13;224367;1263;139242;-87
2023/10/10 15:35:09;;;;;;;47.60;30.70;;;;;;;13.04;100.00;100841.05;223740;1263;139642;-87
2023/10/10 15:41:10;;;;;;;50.60;32.70;;;;;;;12.99;100.00;100841.31;223661;1263;141038;-88
2023/10/10 15:47:11;;;;;;;46.40;30.80;;;;;;;12.94;100.00;100846.16;224388;1263;139120;-87
2023/10/10 15:53:30;;;;;;;51.80;29.70;;;;;;;12.91;100.00;100837.76;223769;1263;140603;-88
2023/10/10 15:59:04;;;;;;;;;;;;;;;;;;;;;
2023/10/10 16:05:07;;;;;;;50.00;31.30;;;;;;;12.90;100.00;100832.15;223821;1263;141067;-88
2023/10/10 16:11:08;;;;;;;45.70;31.20;;;;;;;12.87;100.00;100831.48;223708;1263;140859;-88
2023/10/10 16:17:15;;;;;;;47.40;30.70;;;;;;;12.84;100.00;100831.79;224266;1263;139757;-88
2023/10/10 16:23:11;;;;;;;47.30;32.50;;;;;;;12.77;100.00;100835.73;223853;1263;140934;-88
2023/10/10 16:29:12;;;;;;;49.80;34.50;;;;;;;12.71;100.00;100844.05;224346;1263;139123;-88
2023/10/10 16:35:12;;;;;;;48.90;32.80;;;;;;;12.72;100.00;100845.95;223961;1263;141110;-88
2023/10/10 16:41:13;;;;;;;54.60;35.60;;;;;;;12.77;100.00;100852.23;223756;1263;140344;-89
2023/10/10 16:47:41;;;;;;;52.60;34.40;;;;;;;12.77;100.00;100855.41;224279;1263;139586;-87
2023/10/10 16:59:17;;;;;;;59.00;40.00;;;;;;;12.79;100.00;100847.28;224270;1264;139154;-88
2023/10/10 17:05:23;;;;;;;53.00;36.40;;;;;;;12.76;100.00;100846.23;224165;1264;140755;-87
2023/10/10 17:11:20;;;;;;;59.40;41.00;;;;;;;12.77;100.00;100844.36;223811;1263;140676;-89
2023/10/10 17:17:24;;;;;;;53.20;37.90;;;;;;;12.78;100.00;100837.89;224268;1263;139115;-88
2023/10/10 17:29:28;;;;;;;56.50;40.20;;;;;;;12.67;100.00;100826.74;224259;1263;139099;-88
2023/10/10 17:35:29;;;;;;;56.30;38.50;;;;;;;12.69;100.00;100825.73;224086;1263;385004;-88
2023/10/10 17:41:34;;;;;;;56.30;42.90;;;;;;;12.65;100.00;100817.57;223840;1264;140760;-88
2023/10/10 17:59:23;;;;;;;;;;;;;;;;;;;;;
2023/10/10 18:05:25;;;;;;;56.80;38.50;;;;;;;12.50;100.00;100804.09;224076;1263;388762;-87
2023/10/10 18:11:26;;;;;;;55.00;38.60;;;;;;;12.45;100.00;100806.26;223824;1263;140376;-87
2023/10/10 18:23:29;;;;;;;59.10;40.60;;;;;;;12.31;100.00;100797.92;223722;1263;140399;-89
2023/10/10 18:29:33;;;;;;;57.50;40.50;;;;;;;12.20;100.00;100787.40;224389;1264;139184;-88
2023/10/10 18:35:30;;;;;;;;;;;;;;;;;;;;;
2023/10/10 18:41:33;;;;;;;56.80;39.50;;;;;;;11.99;100.00;100782.45;223688;1266;140971;-89
2023/10/10 18:47:34;;;;;;;63.60;41.10;;;;;;;11.89;100.00;100781.23;224346;1263;139381;-88
2023/10/10 18:53:36;;;;;;;62.00;45.00;;;;;;;11.78;100.00;100771.34;223775;1263;141142;-87
2023/10/10 18:59:36;;;;;;;60.90;41.80;;;;;;;11.71;100.00;100772.37;224323;1263;139104;-87
2023/10/10 19:05:39;;;;;;;58.10;39.40;;;;;;;11.65;100.00;100770.00;224284;1263;139222;-87
2023/10/10 19:11:38;;;;;;;64.50;49.70;;;;;;;11.62;100.00;100750.52;223724;1263;140875;-90
2023/10/10 19:29:43;;;;;;;67.60;47.90;;;;;;;11.56;100.00;100726.23;224401;1263;139107;-88
2023/10/10 19:35:44;;;;;;;62.80;49.20;;;;;;;11.51;100.00;100729.00;224248;1263;139615;-89
2023/10/10 19:41:45;;;;;;;71.50;58.80;;;;;;;11.49;100.00;100728.20;223716;1263;140914;-92
2023/10/10 19:47:48;;;;;;;78.70;64.30;;;;;;;11.50;100.00;100727.41;224258;1263;139230;-91
2023/10/10 19:58:50;;;;;;;83.70;73.90;;;;;;;11.52;100.00;100713.27;224264;1262;96287;-84
2023/10/10 20:04:24;;;;;;;120.30;107.30;;;;;;;11.54;100.00;100710.59;223873;1263;140249;-83
2023/10/10 20:10:16;;;;;;;115.60;104.40;;;;;;;11.56;100.00;100718.03;223741;1263;141050;-84
2023/10/10 20:16:00;;;;;;;122.00;110.40;;;;;;;11.60;100.00;100731.51;224323;1263;140416;-83
2023/10/10 20:21:52;;;;;;;;;;;;;;;;;;;;;
2023/10/10 20:27:31;;;;;;;;;;;;;;;;;;;;;
2023/10/10 20:33:54;;;;;;;224.30;204.10;;;;;;;11.73;100.00;100724.55;219794;1263;5360583;-84
2023/10/10 20:39:28;;;;;;;;;;;;;;;;;;;;;
2023/10/10 20:44:48;;;;;;;;;;;;;;;;;;;;;
2023/10/10 20:50:26;;;;;;;;;;;;;;;;;;;;;
2023/10/10 20:55:42;;;;;;;261.70;237.40;;;;;;;11.87;100.00;100714.46;224451;1264;139926;-82
2023/10/10 21:01:21;;;;;;;;;;;;;;;11.91;100.00;100706.55;223891;1263;141037;-82
2023/10/10 21:06:26;;;;;;;135.70;123.30;;;;;;;11.92;100.00;100702.71;224459;1264;107933;-82
2023/10/10 21:11:47;;;;;;;263.60;240.20;;;;;;;11.97;100.00;100697.07;223822;1264;140848;-82
2023/10/10 21:17:35;;;;;;;;;;;;;;;;;;;;;
2023/10/10 21:23:14;;;;;;;306.70;278.50;;;;;;;12.04;100.00;100690.45;224042;1263;140762;-82
2023/10/10 21:28:56;;;;;;;345.70;313.70;;;;;;;12.07;100.00;100678.65;224383;1264;139540;-81
2023/10/10 21:34:56;;;;;;;343.00;309.70;;;;;;;12.10;100.00;100662.12;223840;1264;140732;-82
2023/10/10 21:40:33;;;;;;;;;;;;;;;;;;;;;
2023/10/10 21:46:04;;;;;;;412.40;367.40;;;;;;;12.15;100.00;100649.71;224394;1264;140297;-83
2023/10/10 21:51:25;;;;;;;451.70;403.10;;;;;;;12.19;100.00;100648.16;223755;1265;141606;-82
2023/10/10 21:56:57;;;;;;;;;;;;;;;;;;;;;
2023/10/10 22:02:02;;;;;;;477.20;410.10;;;;;;;12.25;100.00;100635.83;223578;1267;140884;-82
2023/10/10 22:07:34;;;;;;;682.90;549.00;;;;;;;12.28;100.00;100640.59;224196;1263;140347;-82
2023/10/10 22:12:38;;;;;;;596.30;485.60;;;;;;;12.32;100.00;100630.91;223771;1263;140559;-82
2023/10/10 22:18:07;;;;;;;;;;;;;;;;;;;;;
2023/10/10 22:23:45;;;;;;;;;;;;;;;;;;;;;
2023/10/10 22:29:36;;;;;;;;;;;;;;;;;;;;;
2023/10/10 22:35:30;;;;;;;;;;;;;;;;;;;;;
2023/10/10 22:41:32;;;;;;;485.40;412.10;;;;;;;12.49;100.00;100612.02;223834;1263;140948;-83
2023/10/10 22:47:25;;;;;;;893.80;625.90;;;;;;;12.52;100.00;100611.10;224397;1263;139625;-83
2023/10/10 22:53:04;;;;;;;;;;;;;;;;;;;;;
2023/10/10 22:58:46;;;;;;;;;;;;;;;;;;;;;
2023/10/10 23:04:38;;;;;;;;;;;;;;;;;;;;;
2023/10/10 23:10:43;;;;;;;;;;;;;;;;;;;;;
2023/10/10 23:16:47;;;;;;;1069.40;716.00;;;;;;;12.68;100.00;100590.75;224433;1263;139810;-83
2023/10/10 23:22:17;;;;;;;1227.90;726.10;;;;;;;12.68;100.00;100582.79;223841;1263;141743;-83
2023/10/10 23:28:03;;;;;;;;;;;;;;;;;;;;;
2023/10/10 23:33:47;;;;;;;;;;;;;;;;;;;;;
2023/10/10 23:39:07;;;;;;;1254.90;754.10;;;;;;;12.68;100.00;100571.42;224342;1263;140515;-82
2023/10/10 23:45:02;;;;;;;1175.70;700.90;;;;;;;12.68;100.00;100554.23;224137;1262;250057;-83
2023/10/10 23:50:38;;;;;;;1168.90;731.00;;;;;;;12.67;100.00;100554.00;223835;1263;141555;-82
2023/10/10 23:56:17;;;;;;;1227.30;724.40;;;;;;;12.66;100.00;100545.23;224295;1266;140451;-83
